Time;durP1;ratioP1;P1;durP2;ratioP2;P2;SDS_P1;SDS_P2;PMS_P1;PMS_P2;Temp;Humidity;BMP_temperature;BMP_pressure;BME280_temperature;BME280_humidity;BME280_pressure;Samples;Min_cycle;Max_cycle;Signal;HPM_P1;HPM_P2
2019/11/24 00:00:49;;;;;;;3;2.1;;;;;;;6.65;82.25977;93727.09;;;;
2019/11/24 00:01:50;;;;;;;3;2.1;;;;;;;6.65;82.25977;93727.09;;;;
2019/11/24 00:02:51;;;;;;;3;2.1;;;;;;;6.65;82.25977;93727.09;;;;
2019/11/24 00:03:52;;;;;;;3;2.1;;;;;;;6.65;82.25977;93727.09;;;;
2019/11/24 00:04:53;;;;;;;3;2.1;;;;;;;6.65;82.25977;93727.09;;;;
2019/11/24 00:05:54;;;;;;;3;2.1;;;;;;;6.65;82.25977;93727.09;;;;
2019/11/24 00:06:56;;;;;;;3;2.1;;;;;;;6.65;82.25977;93727.09;;;;
2019/11/24 00:07:57;;;;;;;3;2.1;;;;;;;6.65;82.25977;93727.09;;;;
2019/11/24 00:08:58;;;;;;;3;2.1;;;;;;;6.65;82.25977;93727.09;;;;
2019/11/24 00:09:59;;;;;;;2.3;2.1;;;;;;;6.75;82.22852;93729.88;;;;
2019/11/24 00:11:00;;;;;;;2.3;2.1;;;;;;;6.75;82.22852;93729.88;;;;
2019/11/24 00:12:01;;;;;;;2.3;2.1;;;;;;;6.75;82.22852;93729.88;;;;
2019/11/24 00:13:03;;;;;;;2.3;2.1;;;;;;;6.75;82.22852;93729.88;;;;
2019/11/24 00:14:04;;;;;;;2.3;2.1;;;;;;;6.75;82.22852;93729.88;;;;
2019/11/24 00:15:05;;;;;;;2.3;2.1;;;;;;;6.75;82.22852;93729.88;;;;
2019/11/24 00:16:07;;;;;;;2.3;2.1;;;;;;;6.75;82.22852;93729.88;;;;
2019/11/24 00:17:08;;;;;;;2.3;2.1;;;;;;;6.75;82.22852;93729.88;;;;
2019/11/24 00:18:09;;;;;;;2.3;2.1;;;;;;;6.75;82.22852;93729.88;;;;
2019/11/24 00:19:10;;;;;;;2.3;2.1;;;;;;;6.75;82.22852;93729.88;;;;
2019/11/24 00:20:12;;;;;;;2.3;2.1;;;;;;;6.75;82.22852;93729.88;;;;
2019/11/24 00:21:13;;;;;;;2.85;2.25;;;;;;;6.8;82.11035;93727.14;;;;
2019/11/24 00:22:14;;;;;;;2.85;2.25;;;;;;;6.8;82.11035;93727.14;;;;
2019/11/24 00:23:15;;;;;;;2.85;2.25;;;;;;;6.8;82.11035;93727.14;;;;
2019/11/24 00:24:22;;;;;;;2.85;2.25;;;;;;;6.8;82.11035;93727.14;;;;
2019/11/24 00:25:26;;;;;;;2.85;2.25;;;;;;;6.8;82.11035;93727.14;;;;
2019/11/24 00:31:37;;;;;;;3.05;2.2;;;;;;;6.85;82.09863;93737.13;;;;
2019/11/24 00:32:38;;;;;;;3.05;2.2;;;;;;;6.85;82.09863;93737.13;;;;
2019/11/24 00:33:39;;;;;;;3.05;2.2;;;;;;;6.85;82.09863;93737.13;;;;
2019/11/24 00:34:40;;;;;;;3.05;2.2;;;;;;;6.85;82.09863;93737.13;;;;
2019/11/24 00:35:41;;;;;;;3.05;2.2;;;;;;;6.85;82.09863;93737.13;;;;
2019/11/24 00:36:42;;;;;;;3.05;2.2;;;;;;;6.85;82.09863;93737.13;;;;
2019/11/24 00:37:44;;;;;;;3.05;2.2;;;;;;;6.85;82.09863;93737.13;;;;
2019/11/24 00:38:45;;;;;;;3.05;2.2;;;;;;;6.85;82.09863;93737.13;;;;
2019/11/24 00:39:46;;;;;;;3.05;2.2;;;;;;;6.85;82.09863;93737.13;;;;
2019/11/24 00:40:47;;;;;;;3.05;2.2;;;;;;;6.85;82.09863;93737.13;;;;
2019/11/24 00:41:48;;;;;;;2.6;2.15;;;;;;;6.78;82.14941;93737.45;;;;
2019/11/24 00:42:49;;;;;;;2.6;2.15;;;;;;;6.78;82.14941;93737.45;;;;
2019/11/24 00:43:50;;;;;;;2.6;2.15;;;;;;;6.78;82.14941;93737.45;;;;
2019/11/24 00:44:51;;;;;;;2.6;2.15;;;;;;;6.78;82.14941;93737.45;;;;
2019/11/24 00:45:53;;;;;;;2.6;2.15;;;;;;;6.78;82.14941;93737.45;;;;
2019/11/24 00:46:54;;;;;;;2.6;2.15;;;;;;;6.78;82.14941;93737.45;;;;
2019/11/24 00:47:55;;;;;;;2.6;2.15;;;;;;;6.78;82.14941;93737.45;;;;
2019/11/24 00:48:56;;;;;;;2.6;2.15;;;;;;;6.78;82.14941;93737.45;;;;
2019/11/24 00:49:57;;;;;;;2.6;2.15;;;;;;;6.78;82.14941;93737.45;;;;
2019/11/24 00:50:59;;;;;;;2.6;2.15;;;;;;;6.78;82.14941;93737.45;;;;
2019/11/24 00:52:00;;;;;;;2.6;2.15;;;;;;;6.78;82.14941;93737.45;;;;
2019/11/24 00:53:01;;;;;;;2.75;2.25;;;;;;;6.8;82.01563;93747.41;;;;
2019/11/24 00:54:03;;;;;;;2.75;2.25;;;;;;;6.8;82.01563;93747.41;;;;
2019/11/24 00:55:04;;;;;;;2.75;2.25;;;;;;;6.8;82.01563;93747.41;;;;
2019/11/24 00:56:05;;;;;;;2.75;2.25;;;;;;;6.8;82.01563;93747.41;;;;
2019/11/24 00:57:06;;;;;;;2.75;2.25;;;;;;;6.8;82.01563;93747.41;;;;
2019/11/24 00:58:07;;;;;;;2.75;2.25;;;;;;;6.8;82.01563;93747.41;;;;
2019/11/24 00:59:09;;;;;;;2.75;2.25;;;;;;;6.8;82.01563;93747.41;;;;
2019/11/24 01:00:10;;;;;;;2.75;2.25;;;;;;;6.8;82.01563;93747.41;;;;
2019/11/24 01:01:11;;;;;;;2.75;2.25;;;;;;;6.8;82.01563;93747.41;;;;
2019/11/24 01:02:12;;;;;;;2.75;2.25;;;;;;;6.8;82.01563;93747.41;;;;
2019/11/24 01:03:13;;;;;;;3.15;2.3;;;;;;;6.66;82.18945;93758.61;;;;
2019/11/24 01:04:15;;;;;;;3.15;2.3;;;;;;;6.66;82.18945;93758.61;;;;
2019/11/24 01:05:16;;;;;;;3.15;2.3;;;;;;;6.66;82.18945;93758.61;;;;
2019/11/24 01:06:17;;;;;;;3.15;2.3;;;;;;;6.66;82.18945;93758.61;;;;
2019/11/24 01:07:19;;;;;;;3.15;2.3;;;;;;;6.66;82.18945;93758.61;;;;
2019/11/24 01:08:20;;;;;;;3.15;2.3;;;;;;;6.66;82.18945;93758.61;;;;
2019/11/24 01:09:21;;;;;;;3.15;2.3;;;;;;;6.66;82.18945;93758.61;;;;
2019/11/24 01:10:22;;;;;;;3.15;2.3;;;;;;;6.66;82.18945;93758.61;;;;
2019/11/24 01:11:23;;;;;;;3.15;2.3;;;;;;;6.66;82.18945;93758.61;;;;
2019/11/24 01:12:24;;;;;;;3.15;2.3;;;;;;;6.66;82.18945;93758.61;;;;
2019/11/24 01:13:25;;;;;;;3.15;2.3;;;;;;;6.66;82.18945;93758.61;;;;
2019/11/24 01:14:26;;;;;;;2.1;1.9;;;;;;;6.68;82.42578;93749.78;;;;
2019/11/24 01:15:28;;;;;;;2.1;1.9;;;;;;;6.68;82.42578;93749.78;;;;
2019/11/24 01:16:40;;;;;;;2.1;1.9;;;;;;;6.68;82.42578;93749.78;;;;
2019/11/24 01:17:41;;;;;;;2.1;1.9;;;;;;;6.68;82.42578;93749.78;;;;
2019/11/24 01:18:42;;;;;;;2.1;1.9;;;;;;;6.68;82.42578;93749.78;;;;
2019/11/24 01:19:43;;;;;;;2.1;1.9;;;;;;;6.68;82.42578;93749.78;;;;
2019/11/24 01:20:44;;;;;;;2.1;1.9;;;;;;;6.68;82.42578;93749.78;;;;
2019/11/24 01:21:46;;;;;;;2.1;1.9;;;;;;;6.68;82.42578;93749.78;;;;
2019/11/24 01:23:50;;;;;;;2.1;1.9;;;;;;;6.68;82.42578;93749.78;;;;
2019/11/24 01:24:51;;;;;;;2.8;2;;;;;;;6.55;82.32715;93756.33;;;;
2019/11/24 01:25:53;;;;;;;2.8;2;;;;;;;6.55;82.32715;93756.33;;;;
2019/11/24 01:26:54;;;;;;;2.8;2;;;;;;;6.55;82.32715;93756.33;;;;
2019/11/24 01:27:55;;;;;;;2.8;2;;;;;;;6.55;82.32715;93756.33;;;;
2019/11/24 01:28:56;;;;;;;2.8;2;;;;;;;6.55;82.32715;93756.33;;;;
2019/11/24 01:29:57;;;;;;;2.8;2;;;;;;;6.55;82.32715;93756.33;;;;
2019/11/24 01:30:59;;;;;;;2.8;2;;;;;;;6.55;82.32715;93756.33;;;;
2019/11/24 01:32:01;;;;;;;2.8;2;;;;;;;6.55;82.32715;93756.33;;;;
2019/11/24 01:33:03;;;;;;;2.8;2;;;;;;;6.55;82.32715;93756.33;;;;
2019/11/24 01:34:04;;;;;;;2.8;2;;;;;;;6.55;82.32715;93756.33;;;;
2019/11/24 01:35:08;;;;;;;2.2;1.9;;;;;;;6.39;82.59375;93752.75;;;;
2019/11/24 01:36:10;;;;;;;2.2;1.9;;;;;;;6.39;82.59375;93752.75;;;;
2019/11/24 01:37:11;;;;;;;2.2;1.9;;;;;;;6.39;82.59375;93752.75;;;;
2019/11/24 01:38:12;;;;;;;2.2;1.9;;;;;;;6.39;82.59375;93752.75;;;;
2019/11/24 01:39:15;;;;;;;2.2;1.9;;;;;;;6.39;82.59375;93752.75;;;;
2019/11/24 01:40:33;;;;;;;2.2;1.9;;;;;;;6.39;82.59375;93752.75;;;;
2019/11/24 01:42:18;;;;;;;2.2;1.9;;;;;;;6.39;82.59375;93752.75;;;;
2019/11/24 01:43:23;;;;;;;2.2;1.9;;;;;;;6.39;82.59375;93752.75;;;;
2019/11/24 01:44:24;;;;;;;2.2;1.9;;;;;;;6.39;82.59375;93752.75;;;;
2019/11/24 01:45:28;;;;;;;2.2;1.9;;;;;;;6.39;82.59375;93752.75;;;;
2019/11/24 01:46:29;;;;;;;3;1.9;;;;;;;6.2;82.9707;93763.9;;;;
2019/11/24 01:47:30;;;;;;;3;1.9;;;;;;;6.2;82.9707;93763.9;;;;
2019/11/24 01:48:31;;;;;;;3;1.9;;;;;;;6.2;82.9707;93763.9;;;;
2019/11/24 01:49:33;;;;;;;3;1.9;;;;;;;6.2;82.9707;93763.9;;;;
2019/11/24 01:50:34;;;;;;;3;1.9;;;;;;;6.2;82.9707;93763.9;;;;
2019/11/24 01:51:35;;;;;;;3;1.9;;;;;;;6.2;82.9707;93763.9;;;;
2019/11/24 01:52:36;;;;;;;3;1.9;;;;;;;6.2;82.9707;93763.9;;;;
2019/11/24 01:53:37;;;;;;;3;1.9;;;;;;;6.2;82.9707;93763.9;;;;
2019/11/24 01:54:38;;;;;;;3;1.9;;;;;;;6.2;82.9707;93763.9;;;;
2019/11/24 01:55:39;;;;;;;3;1.9;;;;;;;6.2;82.9707;93763.9;;;;
2019/11/24 01:56:40;;;;;;;3;1.8;;;;;;;6.22;83.26758;93756.95;;;;
2019/11/24 01:57:41;;;;;;;3;1.8;;;;;;;6.22;83.26758;93756.95;;;;
2019/11/24 01:58:43;;;;;;;3;1.8;;;;;;;6.22;83.26758;93756.95;;;;
2019/11/24 01:59:44;;;;;;;3;1.8;;;;;;;6.22;83.26758;93756.95;;;;
2019/11/24 02:00:45;;;;;;;3;1.8;;;;;;;6.22;83.26758;93756.95;;;;
2019/11/24 02:01:46;;;;;;;3;1.8;;;;;;;6.22;83.26758;93756.95;;;;
2019/11/24 02:02:47;;;;;;;3;1.8;;;;;;;6.22;83.26758;93756.95;;;;
2019/11/24 02:03:48;;;;;;;3;1.8;;;;;;;6.22;83.26758;93756.95;;;;
2019/11/24 02:04:50;;;;;;;3;1.8;;;;;;;6.22;83.26758;93756.95;;;;
2019/11/24 02:05:51;;;;;;;3;1.8;;;;;;;6.22;83.26758;93756.95;;;;
2019/11/24 02:06:56;;;;;;;1.9;1.7;;;;;;;6.15;83.33789;93761.67;;;;
2019/11/24 02:07:57;;;;;;;1.9;1.7;;;;;;;6.15;83.33789;93761.67;;;;
2019/11/24 02:08:58;;;;;;;1.9;1.7;;;;;;;6.15;83.33789;93761.67;;;;
2019/11/24 02:10:00;;;;;;;1.9;1.7;;;;;;;6.15;83.33789;93761.67;;;;
2019/11/24 02:11:01;;;;;;;1.9;1.7;;;;;;;6.15;83.33789;93761.67;;;;
2019/11/24 02:12:03;;;;;;;1.9;1.7;;;;;;;6.15;83.33789;93761.67;;;;
2019/11/24 02:13:04;;;;;;;1.9;1.7;;;;;;;6.15;83.33789;93761.67;;;;
2019/11/24 02:14:06;;;;;;;1.9;1.7;;;;;;;6.15;83.33789;93761.67;;;;
2019/11/24 02:15:07;;;;;;;1.9;1.7;;;;;;;6.15;83.33789;93761.67;;;;
2019/11/24 02:16:08;;;;;;;1.9;1.7;;;;;;;6.15;83.33789;93761.67;;;;
2019/11/24 02:17:11;;;;;;;1.9;1.7;;;;;;;6.15;83.33789;93761.67;;;;
2019/11/24 02:18:12;;;;;;;1.95;1.6;;;;;;;6.39;83.60742;93753.31;;;;
2019/11/24 02:19:14;;;;;;;1.95;1.6;;;;;;;6.39;83.60742;93753.31;;;;
2019/11/24 02:20:15;;;;;;;1.95;1.6;;;;;;;6.39;83.60742;93753.31;;;;
2019/11/24 02:21:16;;;;;;;1.95;1.6;;;;;;;6.39;83.60742;93753.31;;;;
2019/11/24 02:22:17;;;;;;;1.95;1.6;;;;;;;6.39;83.60742;93753.31;;;;
2019/11/24 02:23:18;;;;;;;1.95;1.6;;;;;;;6.39;83.60742;93753.31;;;;
2019/11/24 02:24:20;;;;;;;1.95;1.6;;;;;;;6.39;83.60742;93753.31;;;;
2019/11/24 02:25:21;;;;;;;1.95;1.6;;;;;;;6.39;83.60742;93753.31;;;;
2019/11/24 02:26:22;;;;;;;1.95;1.6;;;;;;;6.39;83.60742;93753.31;;;;
2019/11/24 02:27:23;;;;;;;1.95;1.6;;;;;;;6.39;83.60742;93753.31;;;;
2019/11/24 02:28:25;;;;;;;1.9;1.4;;;;;;;6.55;83.22559;93751.11;;;;
2019/11/24 02:29:26;;;;;;;1.9;1.4;;;;;;;6.55;83.22559;93751.11;;;;
2019/11/24 02:30:27;;;;;;;1.9;1.4;;;;;;;6.55;83.22559;93751.11;;;;
2019/11/24 02:31:28;;;;;;;1.9;1.4;;;;;;;6.55;83.22559;93751.11;;;;
2019/11/24 02:32:30;;;;;;;1.9;1.4;;;;;;;6.55;83.22559;93751.11;;;;
2019/11/24 02:33:31;;;;;;;1.9;1.4;;;;;;;6.55;83.22559;93751.11;;;;
2019/11/24 02:34:32;;;;;;;1.9;1.4;;;;;;;6.55;83.22559;93751.11;;;;
2019/11/24 02:35:33;;;;;;;1.9;1.4;;;;;;;6.55;83.22559;93751.11;;;;
2019/11/24 02:36:36;;;;;;;1.9;1.4;;;;;;;6.55;83.22559;93751.11;;;;
2019/11/24 02:37:37;;;;;;;1.9;1.4;;;;;;;6.55;83.22559;93751.11;;;;
2019/11/24 02:38:38;;;;;;;1.65;1.5;;;;;;;6.77;83.19531;93752.72;;;;
2019/11/24 02:39:39;;;;;;;1.65;1.5;;;;;;;6.77;83.19531;93752.72;;;;
2019/11/24 02:40:40;;;;;;;1.65;1.5;;;;;;;6.77;83.19531;93752.72;;;;
2019/11/24 02:41:42;;;;;;;1.65;1.5;;;;;;;6.77;83.19531;93752.72;;;;
2019/11/24 02:42:43;;;;;;;1.65;1.5;;;;;;;6.77;83.19531;93752.72;;;;
2019/11/24 02:43:44;;;;;;;1.65;1.5;;;;;;;6.77;83.19531;93752.72;;;;
2019/11/24 02:44:45;;;;;;;1.65;1.5;;;;;;;6.77;83.19531;93752.72;;;;
2019/11/24 02:45:47;;;;;;;1.65;1.5;;;;;;;6.77;83.19531;93752.72;;;;
2019/11/24 02:46:48;;;;;;;1.65;1.5;;;;;;;6.77;83.19531;93752.72;;;;
2019/11/24 02:47:49;;;;;;;1.65;1.5;;;;;;;6.77;83.19531;93752.72;;;;
2019/11/24 02:48:50;;;;;;;1.65;1.5;;;;;;;6.77;83.19531;93752.72;;;;
2019/11/24 02:49:51;;;;;;;1.65;1.5;;;;;;;6.77;83.19531;93752.72;;;;
2019/11/24 02:50:52;;;;;;;1.65;1.5;;;;;;;6.77;83.19531;93752.72;;;;
2019/11/24 02:51:54;;;;;;;1.65;1.5;;;;;;;6.77;83.19531;93752.72;;;;
2019/11/24 02:52:55;;;;;;;1.65;1.5;;;;;;;6.77;83.19531;93752.72;;;;
2019/11/24 02:53:56;;;;;;;1.65;1.5;;;;;;;6.77;83.19531;93752.72;;;;
2019/11/24 02:54:57;;;;;;;1.65;1.5;;;;;;;6.77;83.19531;93752.72;;;;
2019/11/24 02:55:59;;;;;;;1.65;1.5;;;;;;;6.77;83.19531;93752.72;;;;
2019/11/24 02:57:00;;;;;;;1.65;1.5;;;;;;;6.77;83.19531;93752.72;;;;
2019/11/24 02:58:01;;;;;;;1.65;1.5;;;;;;;6.77;83.19531;93752.72;;;;
2019/11/24 02:59:02;;;;;;;1.65;1.5;;;;;;;6.77;83.19531;93752.72;;;;
2019/11/24 03:00:03;;;;;;;1.6;1.5;;;;;;;6.69;82.7666;93771.12;;;;
2019/11/24 03:01:07;;;;;;;1.6;1.5;;;;;;;6.69;82.7666;93771.12;;;;
2019/11/24 03:02:08;;;;;;;1.6;1.5;;;;;;;6.69;82.7666;93771.12;;;;
2019/11/24 03:03:09;;;;;;;1.6;1.5;;;;;;;6.69;82.7666;93771.12;;;;
2019/11/24 03:04:10;;;;;;;1.6;1.5;;;;;;;6.69;82.7666;93771.12;;;;
2019/11/24 03:05:11;;;;;;;1.6;1.5;;;;;;;6.69;82.7666;93771.12;;;;
2019/11/24 03:07:20;;;;;;;1.6;1.5;;;;;;;6.69;82.7666;93771.12;;;;
2019/11/24 03:08:22;;;;;;;1.6;1.5;;;;;;;6.69;82.7666;93771.12;;;;
2019/11/24 03:09:24;;;;;;;1.6;1.5;;;;;;;6.69;82.7666;93771.12;;;;
2019/11/24 03:11:39;;;;;;;1.6;1.5;;;;;;;6.69;82.7666;93771.12;;;;
2019/11/24 03:13:20;;;;;;;2.15;1.7;;;;;;;6.35;83.23047;93781.52;;;;
2019/11/24 03:14:24;;;;;;;2.15;1.7;;;;;;;6.35;83.23047;93781.52;;;;
2019/11/24 03:15:26;;;;;;;2.15;1.7;;;;;;;6.35;83.23047;93781.52;;;;
2019/11/24 03:16:27;;;;;;;2.15;1.7;;;;;;;6.35;83.23047;93781.52;;;;
2019/11/24 03:17:28;;;;;;;2.15;1.7;;;;;;;6.35;83.23047;93781.52;;;;
2019/11/24 03:18:29;;;;;;;2.15;1.7;;;;;;;6.35;83.23047;93781.52;;;;
2019/11/24 03:19:30;;;;;;;2.15;1.7;;;;;;;6.35;83.23047;93781.52;;;;
2019/11/24 03:20:32;;;;;;;2.15;1.7;;;;;;;6.35;83.23047;93781.52;;;;
2019/11/24 03:21:33;;;;;;;1.85;1.5;;;;;;;6.14;83.67578;93789.5;;;;
2019/11/24 03:22:34;;;;;;;1.85;1.5;;;;;;;6.14;83.67578;93789.5;;;;
2019/11/24 03:23:35;;;;;;;1.85;1.5;;;;;;;6.14;83.67578;93789.5;;;;
2019/11/24 03:24:36;;;;;;;1.85;1.5;;;;;;;6.14;83.67578;93789.5;;;;
2019/11/24 03:25:38;;;;;;;1.85;1.5;;;;;;;6.14;83.67578;93789.5;;;;
2019/11/24 03:26:39;;;;;;;1.85;1.5;;;;;;;6.14;83.67578;93789.5;;;;
2019/11/24 03:27:40;;;;;;;1.85;1.5;;;;;;;6.14;83.67578;93789.5;;;;
2019/11/24 03:28:41;;;;;;;1.85;1.5;;;;;;;6.14;83.67578;93789.5;;;;
2019/11/24 03:29:42;;;;;;;1.85;1.5;;;;;;;6.14;83.67578;93789.5;;;;
2019/11/24 03:30:43;;;;;;;1.85;1.5;;;;;;;6.14;83.67578;93789.5;;;;
2019/11/24 03:31:44;;;;;;;1.85;1.5;;;;;;;6.14;83.67578;93789.5;;;;
2019/11/24 03:32:46;;;;;;;1.5;1.4;;;;;;;5.93;83.95215;93802.72;;;;
2019/11/24 03:33:47;;;;;;;1.5;1.4;;;;;;;5.93;83.95215;93802.72;;;;
2019/11/24 03:34:48;;;;;;;1.5;1.4;;;;;;;5.93;83.95215;93802.72;;;;
2019/11/24 03:35:49;;;;;;;1.5;1.4;;;;;;;5.93;83.95215;93802.72;;;;
2019/11/24 03:36:50;;;;;;;1.5;1.4;;;;;;;5.93;83.95215;93802.72;;;;
2019/11/24 03:37:51;;;;;;;1.5;1.4;;;;;;;5.93;83.95215;93802.72;;;;
2019/11/24 03:38:52;;;;;;;1.5;1.4;;;;;;;5.93;83.95215;93802.72;;;;
2019/11/24 03:39:53;;;;;;;1.5;1.4;;;;;;;5.93;83.95215;93802.72;;;;
2019/11/24 03:40:54;;;;;;;1.5;1.4;;;;;;;5.93;83.95215;93802.72;;;;
2019/11/24 03:41:56;;;;;;;1.5;1.4;;;;;;;5.93;83.95215;93802.72;;;;
2019/11/24 03:42:57;;;;;;;2.3;1.35;;;;;;;5.82;84.32129;93799.55;;;;
2019/11/24 03:44:01;;;;;;;2.3;1.35;;;;;;;5.82;84.32129;93799.55;;;;
2019/11/24 03:45:02;;;;;;;2.3;1.35;;;;;;;5.82;84.32129;93799.55;;;;
2019/11/24 03:50:12;;;;;;;2.3;1.35;;;;;;;5.82;84.32129;93799.55;;;;
2019/11/24 03:51:16;;;;;;;2.3;1.35;;;;;;;5.82;84.32129;93799.55;;;;
2019/11/24 03:52:24;;;;;;;2.3;1.35;;;;;;;5.82;84.32129;93799.55;;;;
2019/11/24 03:53:45;;;;;;;1.6;1.5;;;;;;;5.68;84.54688;93806.28;;;;
2019/11/24 03:55:03;;;;;;;1.6;1.5;;;;;;;5.68;84.54688;93806.28;;;;
2019/11/24 03:56:05;;;;;;;1.6;1.5;;;;;;;5.68;84.54688;93806.28;;;;
2019/11/24 03:57:14;;;;;;;1.6;1.5;;;;;;;5.68;84.54688;93806.28;;;;
2019/11/24 04:00:21;;;;;;;1.6;1.5;;;;;;;5.68;84.54688;93806.28;;;;
2019/11/24 04:01:51;;;;;;;1.6;1.5;;;;;;;5.68;84.54688;93806.28;;;;
2019/11/24 04:02:55;;;;;;;1.6;1.5;;;;;;;5.68;84.54688;93806.28;;;;
2019/11/24 04:04:20;;;;;;;1.9;1.5;;;;;;;5.58;84.85352;93827.92;;;;
2019/11/24 04:05:34;;;;;;;1.9;1.5;;;;;;;5.58;84.85352;93827.92;;;;
2019/11/24 04:06:41;;;;;;;1.9;1.5;;;;;;;5.58;84.85352;93827.92;;;;
2019/11/24 04:07:43;;;;;;;1.9;1.5;;;;;;;5.58;84.85352;93827.92;;;;
2019/11/24 04:08:58;;;;;;;1.9;1.5;;;;;;;5.58;84.85352;93827.92;;;;
2019/11/24 04:10:11;;;;;;;1.9;1.5;;;;;;;5.58;84.85352;93827.92;;;;
2019/11/24 04:11:13;;;;;;;1.9;1.5;;;;;;;5.58;84.85352;93827.92;;;;
2019/11/24 04:12:14;;;;;;;1.9;1.5;;;;;;;5.58;84.85352;93827.92;;;;
2019/11/24 04:13:15;;;;;;;1.9;1.5;;;;;;;5.58;84.85352;93827.92;;;;
2019/11/24 04:14:18;;;;;;;1.9;1.4;;;;;;;5.56;85.17773;93825.48;;;;
2019/11/24 04:15:29;;;;;;;1.9;1.4;;;;;;;5.56;85.17773;93825.48;;;;
2019/11/24 04:16:56;;;;;;;1.9;1.4;;;;;;;5.56;85.17773;93825.48;;;;
2019/11/24 04:17:59;;;;;;;1.9;1.4;;;;;;;5.56;85.17773;93825.48;;;;
2019/11/24 04:19:00;;;;;;;1.9;1.4;;;;;;;5.56;85.17773;93825.48;;;;
2019/11/24 04:20:01;;;;;;;1.9;1.4;;;;;;;5.56;85.17773;93825.48;;;;
2019/11/24 04:21:02;;;;;;;1.9;1.4;;;;;;;5.56;85.17773;93825.48;;;;
2019/11/24 04:22:03;;;;;;;1.9;1.4;;;;;;;5.56;85.17773;93825.48;;;;
2019/11/24 04:23:05;;;;;;;1.9;1.4;;;;;;;5.56;85.17773;93825.48;;;;
2019/11/24 04:24:07;;;;;;;1.9;1.4;;;;;;;5.56;85.17773;93825.48;;;;
2019/11/24 04:25:08;;;;;;;1.55;1.4;;;;;;;5.66;85.18652;93827.54;;;;
2019/11/24 04:26:09;;;;;;;1.55;1.4;;;;;;;5.66;85.18652;93827.54;;;;
2019/11/24 04:27:10;;;;;;;1.55;1.4;;;;;;;5.66;85.18652;93827.54;;;;
2019/11/24 04:28:12;;;;;;;1.55;1.4;;;;;;;5.66;85.18652;93827.54;;;;
2019/11/24 04:29:13;;;;;;;1.55;1.4;;;;;;;5.66;85.18652;93827.54;;;;
2019/11/24 04:30:16;;;;;;;1.55;1.4;;;;;;;5.66;85.18652;93827.54;;;;
2019/11/24 04:31:17;;;;;;;1.55;1.4;;;;;;;5.66;85.18652;93827.54;;;;
2019/11/24 04:32:18;;;;;;;1.55;1.4;;;;;;;5.66;85.18652;93827.54;;;;
2019/11/24 04:33:20;;;;;;;1.55;1.4;;;;;;;5.66;85.18652;93827.54;;;;
2019/11/24 04:34:21;;;;;;;1.55;1.4;;;;;;;5.66;85.18652;93827.54;;;;
2019/11/24 04:35:22;;;;;;;1.55;1.4;;;;;;;5.66;85.18652;93827.54;;;;
2019/11/24 04:36:24;;;;;;;2.15;1.4;;;;;;;5.59;85.27637;93837.19;;;;
2019/11/24 04:37:25;;;;;;;2.15;1.4;;;;;;;5.59;85.27637;93837.19;;;;
2019/11/24 04:38:26;;;;;;;2.15;1.4;;;;;;;5.59;85.27637;93837.19;;;;
2019/11/24 04:39:27;;;;;;;2.15;1.4;;;;;;;5.59;85.27637;93837.19;;;;
2019/11/24 04:40:29;;;;;;;2.15;1.4;;;;;;;5.59;85.27637;93837.19;;;;
2019/11/24 04:41:32;;;;;;;2.15;1.4;;;;;;;5.59;85.27637;93837.19;;;;
2019/11/24 04:44:39;;;;;;;2.15;1.4;;;;;;;5.59;85.27637;93837.19;;;;
2019/11/24 04:54:10;;;;;;;1.5;1.4;;;;;;;5.56;85.53516;93844.36;;;;
2019/11/24 04:59:42;;;;;;;2.1;1.6;;;;;;;5.42;85.78223;93853.61;;;;
2019/11/24 05:01:21;;;;;;;2.1;1.6;;;;;;;5.42;85.78223;93853.61;;;;
2019/11/24 05:06:30;;;;;;;2.1;1.6;;;;;;;5.42;85.78223;93853.61;;;;
2019/11/24 05:07:34;;;;;;;2.35;1.7;;;;;;;5.34;86.16797;93858.95;;;;
2019/11/24 05:11:03;;;;;;;2.35;1.7;;;;;;;5.34;86.16797;93858.95;;;;
2019/11/24 05:17:21;;;;;;;2.35;1.7;;;;;;;5.34;86.16797;93858.95;;;;
2019/11/24 05:18:22;;;;;;;2.35;1.6;;;;;;;5.15;86.44434;93868.19;;;;
2019/11/24 05:19:29;;;;;;;2.35;1.6;;;;;;;5.15;86.44434;93868.19;;;;
2019/11/24 05:20:33;;;;;;;2.35;1.6;;;;;;;5.15;86.44434;93868.19;;;;
2019/11/24 05:21:42;;;;;;;2.35;1.6;;;;;;;5.15;86.44434;93868.19;;;;
2019/11/24 05:22:46;;;;;;;2.35;1.6;;;;;;;5.15;86.44434;93868.19;;;;
2019/11/24 05:24:40;;;;;;;2.35;1.6;;;;;;;5.15;86.44434;93868.19;;;;
2019/11/24 05:28:55;;;;;;;1.9;1.7;;;;;;;5.03;86.85156;93874.1;;;;
2019/11/24 05:30:11;;;;;;;1.9;1.7;;;;;;;5.03;86.85156;93874.1;;;;
2019/11/24 05:31:15;;;;;;;1.9;1.7;;;;;;;5.03;86.85156;93874.1;;;;
2019/11/24 05:32:18;;;;;;;1.9;1.7;;;;;;;5.03;86.85156;93874.1;;;;
2019/11/24 05:33:24;;;;;;;1.9;1.7;;;;;;;5.03;86.85156;93874.1;;;;
2019/11/24 05:34:27;;;;;;;1.9;1.7;;;;;;;5.03;86.85156;93874.1;;;;
2019/11/24 05:35:28;;;;;;;1.9;1.7;;;;;;;5.03;86.85156;93874.1;;;;
2019/11/24 05:36:30;;;;;;;1.9;1.7;;;;;;;5.03;86.85156;93874.1;;;;
2019/11/24 05:37:31;;;;;;;1.9;1.7;;;;;;;5.03;86.85156;93874.1;;;;
2019/11/24 05:38:36;;;;;;;1.9;1.7;;;;;;;5.03;86.85156;93874.1;;;;
2019/11/24 05:39:39;;;;;;;1.8;1.7;;;;;;;4.83;87.14648;93875.94;;;;
2019/11/24 05:40:44;;;;;;;1.8;1.7;;;;;;;4.83;87.14648;93875.94;;;;
2019/11/24 05:41:48;;;;;;;1.8;1.7;;;;;;;4.83;87.14648;93875.94;;;;
2019/11/24 05:42:49;;;;;;;1.8;1.7;;;;;;;4.83;87.14648;93875.94;;;;
2019/11/24 05:43:52;;;;;;;1.8;1.7;;;;;;;4.83;87.14648;93875.94;;;;
2019/11/24 05:44:55;;;;;;;1.8;1.7;;;;;;;4.83;87.14648;93875.94;;;;
2019/11/24 05:45:56;;;;;;;1.8;1.7;;;;;;;4.83;87.14648;93875.94;;;;
2019/11/24 05:46:57;;;;;;;1.8;1.7;;;;;;;4.83;87.14648;93875.94;;;;
2019/11/24 05:47:59;;;;;;;1.8;1.7;;;;;;;4.83;87.14648;93875.94;;;;
2019/11/24 05:49:00;;;;;;;1.8;1.7;;;;;;;4.83;87.14648;93875.94;;;;
2019/11/24 05:50:04;;;;;;;1.6;1.5;;;;;;;4.7;87.49121;93871.14;;;;
2019/11/24 05:51:05;;;;;;;1.6;1.5;;;;;;;4.7;87.49121;93871.14;;;;
2019/11/24 05:52:06;;;;;;;1.6;1.5;;;;;;;4.7;87.49121;93871.14;;;;
2019/11/24 05:53:07;;;;;;;1.6;1.5;;;;;;;4.7;87.49121;93871.14;;;;
2019/11/24 05:54:09;;;;;;;1.6;1.5;;;;;;;4.7;87.49121;93871.14;;;;
2019/11/24 05:55:10;;;;;;;1.6;1.5;;;;;;;4.7;87.49121;93871.14;;;;
2019/11/24 05:56:11;;;;;;;1.6;1.5;;;;;;;4.7;87.49121;93871.14;;;;
2019/11/24 05:57:14;;;;;;;1.6;1.5;;;;;;;4.7;87.49121;93871.14;;;;
2019/11/24 05:58:15;;;;;;;1.6;1.5;;;;;;;4.7;87.49121;93871.14;;;;
2019/11/24 05:59:16;;;;;;;1.6;1.5;;;;;;;4.7;87.49121;93871.14;;;;
2019/11/24 06:00:17;;;;;;;1.6;1.5;;;;;;;4.7;87.49121;93871.14;;;;
2019/11/24 06:01:18;;;;;;;2.2;1.6;;;;;;;4.5;87.70215;93887.64;;;;
2019/11/24 06:03:10;;;;;;;2.2;1.6;;;;;;;4.5;87.70215;93887.64;;;;
2019/11/24 06:04:11;;;;;;;2.2;1.6;;;;;;;4.5;87.70215;93887.64;;;;
2019/11/24 06:05:12;;;;;;;2.2;1.6;;;;;;;4.5;87.70215;93887.64;;;;
2019/11/24 06:06:13;;;;;;;2.2;1.6;;;;;;;4.5;87.70215;93887.64;;;;
2019/11/24 06:07:14;;;;;;;2.2;1.6;;;;;;;4.5;87.70215;93887.64;;;;
2019/11/24 06:08:17;;;;;;;2.2;1.6;;;;;;;4.5;87.70215;93887.64;;;;
2019/11/24 06:09:18;;;;;;;2.2;1.6;;;;;;;4.5;87.70215;93887.64;;;;
2019/11/24 06:10:26;;;;;;;2.2;1.6;;;;;;;4.5;87.70215;93887.64;;;;
2019/11/24 06:11:27;;;;;;;1.7;1.6;;;;;;;4.41;88.00781;93892.26;;;;
2019/11/24 06:12:29;;;;;;;1.7;1.6;;;;;;;4.41;88.00781;93892.26;;;;
2019/11/24 06:13:30;;;;;;;1.7;1.6;;;;;;;4.41;88.00781;93892.26;;;;
2019/11/24 06:14:31;;;;;;;1.7;1.6;;;;;;;4.41;88.00781;93892.26;;;;
2019/11/24 06:15:32;;;;;;;1.7;1.6;;;;;;;4.41;88.00781;93892.26;;;;
2019/11/24 06:16:33;;;;;;;1.7;1.6;;;;;;;4.41;88.00781;93892.26;;;;
2019/11/24 06:17:35;;;;;;;1.7;1.6;;;;;;;4.41;88.00781;93892.26;;;;
2019/11/24 06:18:36;;;;;;;1.7;1.6;;;;;;;4.41;88.00781;93892.26;;;;
2019/11/24 06:19:37;;;;;;;1.7;1.6;;;;;;;4.41;88.00781;93892.26;;;;
2019/11/24 06:20:44;;;;;;;1.7;1.6;;;;;;;4.41;88.00781;93892.26;;;;
2019/11/24 06:26:23;;;;;;;2.5;1.6;;;;;;;4.28;88.24414;93907.58;;;;
2019/11/24 06:27:24;;;;;;;2.5;1.6;;;;;;;4.28;88.24414;93907.58;;;;
2019/11/24 06:28:25;;;;;;;2.5;1.6;;;;;;;4.28;88.24414;93907.58;;;;
2019/11/24 06:29:26;;;;;;;2.5;1.6;;;;;;;4.28;88.24414;93907.58;;;;
2019/11/24 06:30:27;;;;;;;2.5;1.6;;;;;;;4.28;88.24414;93907.58;;;;
2019/11/24 06:32:37;;;;;;;2.9;1.8;;;;;;;4.25;88.59668;93922.72;;;;
2019/11/24 06:33:38;;;;;;;2.9;1.8;;;;;;;4.25;88.59668;93922.72;;;;
2019/11/24 06:34:39;;;;;;;2.9;1.8;;;;;;;4.25;88.59668;93922.72;;;;
2019/11/24 06:35:40;;;;;;;2.9;1.8;;;;;;;4.25;88.59668;93922.72;;;;
2019/11/24 06:36:41;;;;;;;2.9;1.8;;;;;;;4.25;88.59668;93922.72;;;;
2019/11/24 06:37:42;;;;;;;2.9;1.8;;;;;;;4.25;88.59668;93922.72;;;;
2019/11/24 06:38:44;;;;;;;2.9;1.8;;;;;;;4.25;88.59668;93922.72;;;;
2019/11/24 06:39:45;;;;;;;2.9;1.8;;;;;;;4.25;88.59668;93922.72;;;;
2019/11/24 06:40:46;;;;;;;2.9;1.8;;;;;;;4.25;88.59668;93922.72;;;;
2019/11/24 06:41:47;;;;;;;2.9;1.8;;;;;;;4.25;88.59668;93922.72;;;;
2019/11/24 06:42:48;;;;;;;2.9;1.8;;;;;;;4.25;88.59668;93922.72;;;;
2019/11/24 06:43:49;;;;;;;1.6;1.5;;;;;;;4.18;88.75;93937.11;;;;
2019/11/24 06:44:50;;;;;;;1.6;1.5;;;;;;;4.18;88.75;93937.11;;;;
2019/11/24 06:45:51;;;;;;;1.6;1.5;;;;;;;4.18;88.75;93937.11;;;;
2019/11/24 06:46:53;;;;;;;1.6;1.5;;;;;;;4.18;88.75;93937.11;;;;
2019/11/24 06:47:54;;;;;;;1.6;1.5;;;;;;;4.18;88.75;93937.11;;;;
2019/11/24 06:48:55;;;;;;;1.6;1.5;;;;;;;4.18;88.75;93937.11;;;;
2019/11/24 06:49:56;;;;;;;1.6;1.5;;;;;;;4.18;88.75;93937.11;;;;
2019/11/24 06:50:57;;;;;;;1.6;1.5;;;;;;;4.18;88.75;93937.11;;;;
2019/11/24 06:51:58;;;;;;;1.6;1.5;;;;;;;4.18;88.75;93937.11;;;;
2019/11/24 06:53:00;;;;;;;1.6;1.5;;;;;;;4.18;88.75;93937.11;;;;
2019/11/24 06:54:01;;;;;;;2.2;1.8;;;;;;;4.24;88.96094;93955.83;;;;
2019/11/24 06:55:02;;;;;;;2.2;1.8;;;;;;;4.24;88.96094;93955.83;;;;
2019/11/24 06:56:03;;;;;;;2.2;1.8;;;;;;;4.24;88.96094;93955.83;;;;
2019/11/24 06:57:04;;;;;;;2.2;1.8;;;;;;;4.24;88.96094;93955.83;;;;
2019/11/24 06:58:05;;;;;;;2.2;1.8;;;;;;;4.24;88.96094;93955.83;;;;
2019/11/24 06:59:06;;;;;;;2.2;1.8;;;;;;;4.24;88.96094;93955.83;;;;
2019/11/24 07:00:18;;;;;;;2.2;1.8;;;;;;;4.24;88.96094;93955.83;;;;
2019/11/24 07:01:52;;;;;;;2.2;1.8;;;;;;;4.24;88.96094;93955.83;;;;
2019/11/24 07:02:53;;;;;;;2.2;1.8;;;;;;;4.24;88.96094;93955.83;;;;